Time;durP1;ratioP1;P1;durP2;ratioP2;P2;SDS_P1;SDS_P2;PMS_P1;PMS_P2;Temp;Humidity;BMP_temperature;BMP_pressure;BME280_temperature;BME280_humidity;BME280_pressure;Samples;Min_cycle;Max_cycle;Signal;HPM_P1;HPM_P2
2023/03/02 00:02:17;;;;;;;33.13;17.73;;;;;;;0.75;79.95;102859.91;7392168;19;19995;-62
2023/03/02 00:04:53;;;;;;;37.85;18.48;;;;;;;0.80;79.63;102855.53;7390722;19;20339;-62
2023/03/02 00:07:30;;;;;;;32.30;18.90;;;;;;;0.62;79.92;102852.16;7392486;19;20018;-63
2023/03/02 00:09:56;;;;;;;32.20;18.20;;;;;;;0.70;79.65;102849.50;7392985;19;20037;-63
2023/03/02 00:12:22;;;;;;;33.45;17.70;;;;;;;0.77;79.22;102852.94;7391900;19;20462;-64
2023/03/02 00:14:48;;;;;;;44.33;19.58;;;;;;;0.64;79.54;102844.34;7389844;19;20070;-63
2023/03/02 00:17:13;;;;;;;33.22;19.10;;;;;;;0.53;79.99;102844.41;7390667;19;20010;-63
2023/03/02 00:19:39;;;;;;;41.58;19.65;;;;;;;0.44;79.94;102847.94;7392276;19;20517;-66
2023/03/02 00:22:05;;;;;;;46.67;21.35;;;;;;;0.51;79.88;102837.44;7390009;19;20058;-66
2023/03/02 00:24:30;;;;;;;35.03;20.08;;;;;;;0.59;79.52;102838.25;7391176;19;20074;-64
2023/03/02 00:26:56;;;;;;;35.20;20.30;;;;;;;0.53;79.52;102843.53;7391247;19;20037;-64
2023/03/02 00:29:21;;;;;;;37.42;21.45;;;;;;;0.57;79.70;102840.00;7392002;19;19995;-61
2023/03/02 00:31:47;;;;;;;43.25;20.95;;;;;;;0.50;79.72;102841.78;7390530;19;20311;-62
2023/03/02 00:34:12;;;;;;;35.90;20.13;;;;;;;0.51;79.85;102834.81;7391656;19;20015;-62
2023/03/02 00:36:38;;;;;;;55.88;21.98;;;;;;;0.47;79.81;102833.97;7391376;19;20054;-63
2023/03/02 00:39:03;;;;;;;43.70;21.85;;;;;;;0.42;79.94;102836.63;7389829;19;20011;-64
2023/03/02 00:41:29;;;;;;;34.00;20.55;;;;;;;0.58;79.58;102839.13;7389760;19;20003;-63
2023/03/02 00:43:55;;;;;;;44.25;20.90;;;;;;;0.64;79.15;102832.13;7389965;19;20009;-63
2023/03/02 00:46:23;;;;;;;54.42;21.85;;;;;;;0.58;79.58;102833.91;7390930;19;19991;-62
2023/03/02 00:48:50;;;;;;;68.47;21.90;;;;;;;0.50;79.80;102828.72;7390330;19;19994;-63
2023/03/02 00:51:16;;;;;;;44.95;21.38;;;;;;;0.49;79.84;102823.50;7391229;19;20009;-63
2023/03/02 00:53:42;;;;;;;43.55;21.58;;;;;;;0.38;80.44;102823.56;7389603;19;20078;-63
2023/03/02 00:56:08;;;;;;;37.70;21.77;;;;;;;0.53;79.89;102822.63;7388416;19;19995;-62
2023/03/02 00:58:34;;;;;;;36.30;20.13;;;;;;;0.53;79.88;102817.38;7391496;19;19994;-63
2023/03/02 01:01:06;;;;;;;44.33;20.67;;;;;;;0.65;79.37;102823.38;7389460;19;20587;-63
2023/03/02 01:03:32;;;;;;;34.35;19.98;;;;;;;0.61;79.64;102818.19;7392112;19;20001;-63
2023/03/02 01:05:57;;;;;;;33.25;19.60;;;;;;;0.57;79.67;102814.72;7392904;19;20391;-63
2023/03/02 01:08:23;;;;;;;30.35;19.27;;;;;;;0.53;79.97;102818.25;7398034;19;20345;-63
2023/03/02 01:10:50;;;;;;;54.25;20.92;;;;;;;0.46;79.83;102811.31;7398513;19;19994;-64
2023/03/02 01:13:16;;;;;;;36.70;20.00;;;;;;;0.56;79.72;102804.28;7396127;19;20022;-62
2023/03/02 01:15:42;;;;;;;35.47;19.98;;;;;;;0.64;79.66;102803.34;7394907;19;20029;-63
2023/03/02 01:18:07;;;;;;;34.53;19.98;;;;;;;0.61;79.59;102802.50;7398342;19;20003;-63
2023/03/02 01:20:33;;;;;;;36.00;19.40;;;;;;;0.62;79.81;102807.72;7397785;19;19998;-63
2023/03/02 01:22:58;;;;;;;44.55;20.08;;;;;;;0.53;79.95;102810.41;7397559;19;20005;-63
2023/03/02 01:25:23;;;;;;;39.05;19.75;;;;;;;0.42;80.41;102801.75;7393551;19;20015;-62
2023/03/02 01:27:49;;;;;;;44.80;19.30;;;;;;;0.34;80.33;102801.81;7397600;19;19999;-62
2023/03/02 01:30:21;;;;;;;35.42;18.98;;;;;;;0.35;80.15;102800.94;7397076;19;20471;-61
2023/03/02 01:32:46;;;;;;;36.63;18.08;;;;;;;0.36;80.30;102792.19;7396342;19;20542;-62
2023/03/02 01:35:12;;;;;;;37.80;18.75;;;;;;;0.46;79.78;102790.41;7394803;19;20002;-62
2023/03/02 01:37:38;;;;;;;44.63;18.92;;;;;;;0.50;79.84;102791.25;7395285;19;20002;-63
2023/03/02 01:40:05;;;;;;;32.53;18.58;;;;;;;0.44;79.61;102789.53;7395078;19;19999;-62
2023/03/02 01:42:44;;;;;;;32.42;17.13;;;;;;;0.51;79.29;102785.13;7397661;19;20015;-63
2023/03/02 01:45:40;;;;;;;50.20;18.25;;;;;;;0.31;79.69;102782.66;7394987;19;20052;-63
2023/03/02 01:48:09;;;;;;;75.25;20.52;;;;;;;0.32;79.32;102790.47;7396323;19;20534;-59
2023/03/02 01:50:34;;;;;;;29.92;17.63;;;;;;;0.24;79.76;102794.03;7396425;19;19991;-59
2023/03/02 01:53:00;;;;;;;46.03;18.75;;;;;;;0.39;79.28;102796.53;7395399;19;20023;-58
2023/03/02 01:55:30;;;;;;;28.17;16.73;;;;;;;0.32;79.25;102798.31;7393802;19;19995;-59
2023/03/02 01:57:59;;;;;;;49.45;17.85;;;;;;;0.31;78.99;102788.75;7396663;19;20010;-58
2023/03/02 02:00:28;;;;;;;35.30;17.58;;;;;;;0.23;79.27;102797.53;7395134;19;20006;-64
2023/03/02 02:03:07;;;;;;;32.47;17.02;;;;;;;0.17;79.39;102798.41;7396995;19;20062;-61
2023/03/02 02:05:36;;;;;;;28.55;16.50;;;;;;;0.26;79.33;102792.28;7393958;19;20013;-61
2023/03/02 02:08:02;;;;;;;37.95;18.55;;;;;;;0.25;79.05;102790.53;7396464;19;20010;-61
2023/03/02 02:10:29;;;;;;;42.90;18.13;;;;;;;0.27;79.22;102783.56;7396352;19;20007;-62
2023/03/02 02:12:54;;;;;;;30.58;17.05;;;;;;;0.24;79.41;102786.19;7395630;19;20087;-62
2023/03/02 02:15:19;;;;;;;31.10;16.85;;;;;;;0.36;79.02;102783.50;7392564;19;20006;-62
2023/03/02 02:17:45;;;;;;;28.25;16.73;;;;;;;0.35;78.69;102776.53;7396030;19;20007;-62
2023/03/02 02:20:29;;;;;;;35.72;17.58;;;;;;;0.37;78.83;102780.88;7394537;19;19998;-63
2023/03/02 02:23:22;;;;;;;87.10;20.57;;;;;;;0.27;78.82;102786.19;7396187;19;20005;-64
2023/03/02 02:25:57;;;;;;;30.95;16.17;;;;;;;-0.06;80.54;102782.84;7393442;19;20007;-63
2023/03/02 02:28:33;;;;;;;47.70;17.02;;;;;;;0.06;79.71;102781.94;7395767;19;20066;-64
2023/03/02 02:31:16;;;;;;;67.25;17.70;;;;;;;0.17;78.74;102787.97;7394103;19;20003;-64
2023/03/02 02:33:46;;;;;;;24.27;14.50;;;;;;;0.12;79.03;102788.00;7393307;19;19999;-63
2023/03/02 02:36:18;;;;;;;29.13;15.20;;;;;;;0.16;78.36;102781.88;7392926;19;20004;-63
2023/03/02 02:38:47;;;;;;;31.85;15.63;;;;;;;0.12;78.45;102768.84;7395349;19;20005;-62
2023/03/02 02:41:19;;;;;;;28.67;15.40;;;;;;;0.00;78.79;102782.84;7395474;19;20474;-61
2023/03/02 02:43:44;;;;;;;34.00;15.77;;;;;;;-0.07;78.99;102776.78;7393179;19;19995;-65
2023/03/02 02:46:11;;;;;;;37.80;16.67;;;;;;;-0.08;78.72;102785.50;7392508;19;20463;-62
2023/03/02 02:48:37;;;;;;;32.28;15.23;;;;;;;-0.08;79.04;102792.47;7395060;19;20029;-64
2023/03/02 02:51:06;;;;;;;34.85;15.90;;;;;;;-0.22;79.05;102778.59;7395140;19;20463;-64
2023/03/02 02:53:42;;;;;;;28.27;14.55;;;;;;;-0.24;79.15;102775.13;7393276;19;20063;-64
2023/03/02 02:56:09;;;;;;;28.80;15.20;;;;;;;-0.16;78.70;102776.84;7392062;19;20035;-64
2023/03/02 02:58:43;;;;;;;31.80;15.43;;;;;;;-0.13;78.45;102783.75;7394766;19;19994;-64
2023/03/02 03:01:16;;;;;;;24.05;14.93;;;;;;;0.03;77.96;102782.84;7392809;19;20006;-64
2023/03/02 03:03:49;;;;;;;34.58;16.92;;;;;;;-0.05;78.28;102792.47;7394609;19;20002;-64
2023/03/02 03:06:24;;;;;;;27.55;16.52;;;;;;;-0.14;78.63;102782.03;7391818;19;20001;-64
2023/03/02 03:08:54;;;;;;;33.55;16.02;;;;;;;-0.15;79.08;102785.53;7393900;19;20005;-64
2023/03/02 03:11:23;;;;;;;47.70;17.75;;;;;;;-0.10;78.79;102792.47;7394133;19;20003;-65
2023/03/02 03:13:56;;;;;;;26.98;16.15;;;;;;;-0.14;79.08;102787.25;7391270;19;20005;-64
2023/03/02 03:16:36;;;;;;;30.60;16.08;;;;;;;-0.18;79.13;102783.78;7391172;19;19999;-64
2023/03/02 03:19:10;;;;;;;28.45;15.85;;;;;;;-0.11;78.86;102784.63;7394037;19;20035;-64
2023/03/02 03:21:35;;;;;;;31.35;16.00;;;;;;;-0.16;78.76;102782.06;7393711;19;20351;-64
2023/03/02 03:24:01;;;;;;;45.20;17.75;;;;;;;-0.18;78.90;102786.41;7393484;19;20065;-64
2023/03/02 03:26:26;;;;;;;29.42;16.27;;;;;;;-0.18;78.68;102786.41;7391067;19;20002;-64
2023/03/02 03:28:52;;;;;;;30.00;15.88;;;;;;;-0.09;78.43;102781.16;7391665;19;20075;-65
2023/03/02 03:31:17;;;;;;;32.03;16.85;;;;;;;-0.02;78.07;102787.19;7394283;19;20010;-64
2023/03/02 03:33:43;;;;;;;29.55;15.82;;;;;;;-0.10;78.55;102781.16;7392467;19;20006;-64
2023/03/02 03:36:09;;;;;;;33.10;16.40;;;;;;;-0.15;78.74;102786.41;7390601;19;20005;-64
2023/03/02 03:38:34;;;;;;;32.63;17.05;;;;;;;-0.08;78.89;102776.78;7393811;19;19994;-64
2023/03/02 03:41:00;;;;;;;30.98;16.02;;;;;;;-0.13;78.96;102782.03;7393017;19;19995;-63
2023/03/02 03:43:25;;;;;;;29.40;17.25;;;;;;;-0.11;78.98;102776.81;7392500;19;20035;-64
2023/03/02 03:45:51;;;;;;;30.73;15.65;;;;;;;-0.09;78.83;102772.47;7389091;19;20006;-63
2023/03/02 03:48:17;;;;;;;31.30;16.60;;;;;;;0.00;78.56;102769.78;7392938;19;19991;-64
2023/03/02 03:50:43;;;;;;;28.77;16.13;;;;;;;0.03;78.37;102775.00;7393124;19;20004;-64
2023/03/02 03:53:08;;;;;;;40.08;17.73;;;;;;;0.03;78.25;102764.53;7392468;19;20015;-64
2023/03/02 03:55:34;;;;;;;30.58;15.45;;;;;;;-0.15;78.95;102765.50;7390563;19;20462;-64
2023/03/02 03:57:59;;;;;;;33.72;15.82;;;;;;;-0.09;78.80;102768.09;7390374;19;20490;-64
2023/03/02 04:00:25;;;;;;;27.73;15.77;;;;;;;-0.24;79.14;102768.16;7392419;19;19991;-65
2023/03/02 04:02:50;;;;;;;35.95;16.75;;;;;;;-0.07;78.58;102768.06;7392336;19;19997;-63
2023/03/02 04:05:16;;;;;;;34.50;14.80;;;;;;;-0.15;78.63;102768.09;7390954;19;20027;-63
2023/03/02 04:07:41;;;;;;;27.48;15.13;;;;;;;-0.10;78.27;102768.94;7392435;19;20014;-63
2023/03/02 04:10:08;;;;;;;28.35;15.88;;;;;;;-0.05;78.03;102772.41;7392000;19;20321;-63
2023/03/02 04:12:36;;;;;;;29.33;14.00;;;;;;;-0.12;78.12;102775.94;7391657;19;19990;-63
2023/03/02 04:15:02;;;;;;;37.28;15.38;;;;;;;-0.33;78.73;102782.09;7386131;19;20010;-67
2023/03/02 04:17:28;;;;;;;27.90;14.23;;;;;;;-0.45;79.12;102784.78;7395509;19;20007;-66
2023/03/02 04:19:54;;;;;;;30.88;14.43;;;;;;;-0.36;78.94;102786.47;7392169;19;20003;-66
2023/03/02 04:22:20;;;;;;;38.45;15.73;;;;;;;-0.33;78.80;102782.09;7392344;19;20400;-65
2023/03/02 04:24:47;;;;;;;30.50;15.10;;;;;;;-0.29;78.87;102778.59;7389000;19;20003;-65
2023/03/02 04:27:13;;;;;;;24.33;14.30;;;;;;;-0.38;79.20;102785.63;7391934;19;20016;-66
2023/03/02 04:29:39;;;;;;;37.00;16.35;;;;;;;-0.46;79.43;102793.50;7391881;19;20513;-66
2023/03/02 04:32:05;;;;;;;30.05;14.95;;;;;;;-0.33;79.24;102787.34;7389308;19;19994;-67
2023/03/02 04:34:31;;;;;;;35.38;15.80;;;;;;;-0.25;78.83;102783.81;7390898;19;20358;-68
2023/03/02 04:36:56;;;;;;;34.20;15.13;;;;;;;-0.21;78.47;102789.03;7391684;19;20006;-66
2023/03/02 04:39:22;;;;;;;25.63;14.65;;;;;;;-0.17;78.39;102785.56;7388820;19;20359;-69
2023/03/02 04:41:48;;;;;;;31.50;14.65;;;;;;;-0.23;78.30;102782.94;7391593;19;20036;-69
2023/03/02 04:44:14;;;;;;;30.92;15.52;;;;;;;-0.26;78.94;102774.25;7391174;19;20105;-68
2023/03/02 04:46:41;;;;;;;28.63;15.27;;;;;;;-0.28;79.00;102776.91;7386682;19;20015;-69
2023/03/02 04:49:07;;;;;;;27.90;15.65;;;;;;;-0.29;78.96;102773.38;7390944;19;20034;-69
2023/03/02 04:51:36;;;;;;;29.42;15.40;;;;;;;-0.32;79.06;102776.03;7391924;19;20006;-69
2023/03/02 04:54:06;;;;;;;32.65;15.30;;;;;;;-0.24;78.91;102777.75;7389129;19;20002;-69
2023/03/02 04:56:32;;;;;;;35.75;16.75;;;;;;;-0.23;78.72;102767.28;7388587;19;20003;-67
2023/03/02 04:58:58;;;;;;;31.38;16.17;;;;;;;-0.23;78.94;102772.50;7391237;19;20355;-68
2023/03/02 05:01:24;;;;;;;41.10;16.70;;;;;;;-0.26;78.94;102777.75;7388842;19;20005;-66
2023/03/02 05:03:49;;;;;;;56.75;18.02;;;;;;;-0.28;79.06;102774.28;7390430;19;20013;-67
2023/03/02 05:06:15;;;;;;;26.25;14.30;;;;;;;-0.49;79.75;102775.22;7388302;19;20003;-66
2023/03/02 05:08:42;;;;;;;27.65;15.45;;;;;;;-0.29;78.87;102778.59;7390531;19;20013;-67
2023/03/02 05:11:14;;;;;;;28.13;14.40;;;;;;;-0.21;78.30;102775.97;7390103;19;20079;-67
2023/03/02 05:13:40;;;;;;;26.30;14.93;;;;;;;-0.32;78.60;102773.41;7387358;19;20103;-67
2023/03/02 05:16:05;;;;;;;27.65;15.30;;;;;;;-0.23;78.65;102767.28;7387274;19;20479;-68
2023/03/02 05:18:31;;;;;;;28.73;15.88;;;;;;;-0.17;78.43;102771.59;7389962;19;20443;-67
2023/03/02 05:20:56;;;;;;;28.05;14.88;;;;;;;-0.09;78.40;102773.31;7390244;19;20029;-67
2023/03/02 05:23:26;;;;;;;25.98;14.77;;;;;;;-0.02;78.06;102771.50;7390534;19;19995;-68
2023/03/02 05:25:55;;;;;;;34.75;15.63;;;;;;;-0.18;78.63;102773.34;7387887;19;20006;-68
2023/03/02 05:28:23;;;;;;;29.40;14.52;;;;;;;-0.17;78.39;102779.44;7390868;19;19994;-69
2023/03/02 05:30:49;;;;;;;37.08;15.13;;;;;;;-0.09;78.01;102780.28;7390543;19;20006;-68
2023/03/02 05:33:15;;;;;;;62.15;16.42;;;;;;;-0.17;78.25;102780.31;7388785;19;20026;-68
2023/03/02 05:35:41;;;;;;;61.17;16.58;;;;;;;-0.31;78.95;102788.22;7388144;19;20018;-67
2023/03/02 05:38:08;;;;;;;35.78;15.60;;;;;;;-0.34;78.82;102788.22;7390388;19;20423;-68
2023/03/02 05:40:34;;;;;;;29.40;14.25;;;;;;;-0.33;78.91;102794.31;7390556;19;20066;-68
2023/03/02 05:43:06;;;;;;;30.83;14.88;;;;;;;-0.33;78.81;102792.56;7390071;19;20423;-69
2023/03/02 05:45:34;;;;;;;40.15;15.15;;;;;;;-0.44;79.03;102793.47;7388012;19;20018;-68
2023/03/02 05:48:00;;;;;;;28.85;15.52;;;;;;;-0.43;79.32;102793.47;7389846;19;20086;-68
2023/03/02 05:50:26;;;;;;;54.58;15.40;;;;;;;-0.43;78.92;102793.47;7388602;19;20506;-67
2023/03/02 05:52:51;;;;;;;29.92;14.30;;;;;;;-0.33;78.74;102786.47;7393785;19;20062;-66
2023/03/02 05:55:18;;;;;;;32.70;15.50;;;;;;;-0.36;79.17;102792.59;7395165;19;19999;-66
2023/03/02 05:57:44;;;;;;;37.33;16.20;;;;;;;-0.27;78.78;102791.69;7396781;19;20026;-66
2023/03/02 06:00:14;;;;;;;25.60;14.48;;;;;;;-0.14;78.54;102797.72;7395916;19;20024;-67
2023/03/02 06:02:40;;;;;;;27.05;14.93;;;;;;;-0.12;78.23;102785.53;7397041;19;19999;-67
2023/03/02 06:05:08;;;;;;;31.05;15.13;;;;;;;-0.18;78.56;102790.75;7394163;19;20082;-67
2023/03/02 06:07:33;;;;;;;35.40;14.80;;;;;;;-0.25;78.69;102789.06;7396357;19;20002;-66
2023/03/02 06:09:58;;;;;;;36.10;15.65;;;;;;;-0.22;78.60;102778.59;7396611;19;20001;-67
2023/03/02 06:12:24;;;;;;;37.45;15.45;;;;;;;-0.35;78.82;102778.66;7395642;19;19998;-67
2023/03/02 06:14:49;;;;;;;30.10;14.70;;;;;;;-0.24;78.88;102781.22;7393448;19;20002;-67
2023/03/02 06:17:15;;;;;;;28.42;14.98;;;;;;;-0.11;78.61;102782.03;7395696;19;20335;-64
2023/03/02 06:19:40;;;;;;;29.45;14.88;;;;;;;0.03;78.22;102787.19;7395582;19;20331;-67
2023/03/02 06:22:06;;;;;;;25.52;14.45;;;;;;;0.03;77.95;102793.28;7395605;19;20360;-67
2023/03/02 06:24:31;;;;;;;28.70;14.45;;;;;;;0.06;77.77;102790.66;7395094;19;20087;-67
2023/03/02 06:26:57;;;;;;;30.30;14.65;;;;;;;-0.14;78.05;102795.09;7395130;19;20482;-65
2023/03/02 06:29:22;;;;;;;27.73;13.98;;;;;;;-0.19;78.58;102795.13;7395427;19;20012;-66
2023/03/02 06:31:48;;;;;;;29.58;13.75;;;;;;;-0.32;78.88;102798.66;7395431;19;19995;-68
2023/03/02 06:34:14;;;;;;;35.90;15.07;;;;;;;-0.33;79.08;102796.91;7393232;19;19998;-67
2023/03/02 06:36:39;;;;;;;34.13;14.52;;;;;;;-0.24;78.69;102791.69;7391955;19;20094;-65
2023/03/02 06:39:06;;;;;;;33.90;15.82;;;;;;;-0.30;78.65;102799.53;7394951;19;20013;-66
2023/03/02 06:41:34;;;;;;;24.25;13.63;;;;;;;-0.37;78.93;102809.09;7395019;19;20014;-66
2023/03/02 06:44:00;;;;;;;27.90;14.13;;;;;;;-0.30;78.41;102800.38;7394703;19;20034;-63
2023/03/02 06:46:25;;;;;;;34.33;14.60;;;;;;;-0.34;78.66;102809.09;7391869;19;20494;-63
2023/03/02 06:48:51;;;;;;;45.22;15.05;;;;;;;-0.36;78.99;102808.25;7394392;19;20015;-64
2023/03/02 06:51:16;;;;;;;27.35;14.73;;;;;;;-0.35;78.96;102812.59;7393314;19;20002;-64
2023/03/02 06:53:42;;;;;;;26.73;14.23;;;;;;;-0.24;78.56;102796.03;7393766;19;20019;-66
2023/03/02 06:56:09;;;;;;;27.30;14.18;;;;;;;-0.13;78.18;102804.66;7392326;19;19999;-67
2023/03/02 06:58:35;;;;;;;31.83;14.77;;;;;;;-0.18;78.64;102803.81;7394210;19;19999;-66
2023/03/02 07:01:07;;;;;;;29.98;14.27;;;;;;;-0.19;78.40;102802.09;7394090;19;19999;-68
2023/03/02 07:03:34;;;;;;;31.02;14.50;;;;;;;-0.07;78.21;102802.03;7391538;19;20026;-66
2023/03/02 07:06:00;;;;;;;28.67;14.43;;;;;;;-0.12;78.44;102801.19;7391708;19;20035;-65
2023/03/02 07:08:26;;;;;;;32.92;13.88;;;;;;;-0.16;78.74;102804.69;7394149;19;19995;-64
2023/03/02 07:10:51;;;;;;;40.03;14.90;;;;;;;-0.22;78.91;102799.50;7391652;19;20010;-64
2023/03/02 07:13:17;;;;;;;28.30;14.32;;;;;;;-0.16;78.78;102791.63;7392387;19;20407;-64
2023/03/02 07:15:42;;;;;;;29.33;13.68;;;;;;;-0.09;78.37;102783.78;7391367;19;20009;-64
2023/03/02 07:18:08;;;;;;;27.48;13.82;;;;;;;-0.16;78.60;102791.63;7393275;19;19999;-63
2023/03/02 07:20:33;;;;;;;28.38;13.88;;;;;;;-0.18;78.60;102786.41;7390917;19;19999;-64
2023/03/02 07:22:59;;;;;;;26.45;13.88;;;;;;;-0.09;78.59;102785.53;7392861;19;20002;-64
2023/03/02 07:25:24;;;;;;;25.13;13.32;;;;;;;-0.08;78.37;102790.72;7391139;19;20005;-64
2023/03/02 07:27:50;;;;;;;25.77;13.52;;;;;;;-0.06;78.23;102794.19;7392511;19;20360;-63
2023/03/02 07:30:19;;;;;;;23.75;13.15;;;;;;;0.12;77.98;102784.53;7392682;19;20019;-63
2023/03/02 07:32:46;;;;;;;32.13;14.50;;;;;;;0.06;77.87;102788.06;7392358;19;20009;-63
2023/03/02 07:35:11;;;;;;;29.83;13.48;;;;;;;0.02;77.91;102786.31;7391814;19;19999;-63
2023/03/02 07:37:37;;;;;;;25.83;13.65;;;;;;;-0.13;78.11;102782.03;7393041;19;20474;-64
2023/03/02 07:40:03;;;;;;;29.02;13.07;;;;;;;-0.09;78.00;102782.91;7392565;19;20041;-64
2023/03/02 07:42:29;;;;;;;25.63;12.77;;;;;;;-0.07;78.02;102782.00;7391302;19;20070;-63
2023/03/02 07:44:54;;;;;;;27.33;12.85;;;;;;;0.03;77.79;102781.97;7389095;19;20011;-63
2023/03/02 07:47:21;;;;;;;27.15;12.98;;;;;;;0.15;77.26;102771.44;7392353;19;20794;-64
2023/03/02 07:49:46;;;;;;;39.63;13.85;;;;;;;-0.08;77.87;102779.41;7392784;19;20363;-64
2023/03/02 07:52:12;;;;;;;29.25;13.50;;;;;;;-0.07;78.20;102782.00;7392523;19;19999;-63
2023/03/02 07:54:37;;;;;;;27.95;13.73;;;;;;;-0.11;78.39;102782.03;7391669;19;19998;-64
2023/03/02 07:57:03;;;;;;;28.15;13.27;;;;;;;-0.15;78.63;102781.16;7392396;19;20002;-65
2023/03/02 07:59:28;;;;;;;28.23;13.45;;;;;;;-0.01;78.18;102785.47;7390878;19;19998;-64
2023/03/02 08:01:55;;;;;;;24.50;12.60;;;;;;;0.12;77.65;102782.78;7392181;19;20018;-64
2023/03/02 08:04:20;;;;;;;25.35;13.13;;;;;;;0.05;77.50;102782.81;7391935;19;20014;-63
2023/03/02 08:06:46;;;;;;;25.77;12.65;;;;;;;-0.01;78.01;102782.88;7391272;19;19990;-63
2023/03/02 08:09:12;;;;;;;28.27;12.27;;;;;;;-0.09;78.13;102786.38;7392309;19;20022;-63
2023/03/02 08:11:37;;;;;;;25.67;13.70;;;;;;;-0.06;78.14;102782.84;7389925;19;19994;-63
2023/03/02 08:14:03;;;;;;;26.08;12.52;;;;;;;-0.01;77.49;102785.47;7389384;19;20003;-64
2023/03/02 08:16:29;;;;;;;24.98;11.60;;;;;;;0.09;77.26;102784.53;7388544;19;20344;-64
2023/03/02 08:18:55;;;;;;;29.55;12.57;;;;;;;-0.04;77.69;102786.34;7391275;19;20482;-65
2023/03/02 08:21:23;;;;;;;54.15;14.23;;;;;;;-0.06;77.63;102781.13;7391196;19;19998;-64
2023/03/02 08:23:49;;;;;;;29.33;12.63;;;;;;;-0.18;78.35;102788.16;7389375;19;19998;-64
2023/03/02 08:26:15;;;;;;;28.38;12.77;;;;;;;-0.06;78.38;102777.63;7386428;19;20574;-65
2023/03/02 08:28:41;;;;;;;28.38;13.52;;;;;;;0.16;77.72;102767.94;7391542;19;20014;-64
2023/03/02 08:31:08;;;;;;;29.88;12.75;;;;;;;0.16;77.63;102763.56;7391461;19;20002;-64
2023/03/02 08:33:34;;;;;;;33.35;14.20;;;;;;;0.17;77.44;102767.06;7390452;19;20020;-64
2023/03/02 08:36:04;;;;;;;25.60;13.23;;;;;;;0.22;77.50;102774.91;7389069;19;20030;-64
2023/03/02 08:38:30;;;;;;;28.05;12.85;;;;;;;0.33;76.96;102770.47;7390275;19;20009;-64
2023/03/02 08:40:56;;;;;;;22.23;11.82;;;;;;;0.32;76.95;102773.94;7393151;19;20006;-64
2023/03/02 08:43:23;;;;;;;31.40;13.40;;;;;;;0.35;76.60;102766.94;7390368;19;20339;-64
2023/03/02 08:45:55;;;;;;;30.77;12.88;;;;;;;0.27;77.15;102766.13;7389321;19;20010;-64
2023/03/02 08:48:21;;;;;;;26.35;13.25;;;;;;;0.22;77.37;102767.06;7390211;19;20018;-63
2023/03/02 08:51:01;;;;;;;28.92;13.55;;;;;;;0.33;77.20;102766.09;7390113;19;20010;-64
2023/03/02 08:53:29;;;;;;;27.30;12.98;;;;;;;0.46;76.47;102764.25;7390051;19;20007;-64
2023/03/02 08:55:54;;;;;;;26.35;12.65;;;;;;;0.47;76.44;102757.28;7387536;19;20086;-66
2023/03/02 08:58:20;;;;;;;28.02;12.23;;;;;;;0.33;77.10;102762.63;7390253;19;20482;-65
2023/03/02 09:00:46;;;;;;;29.17;12.82;;;;;;;0.34;77.04;102759.97;7388826;19;19998;-63
2023/03/02 09:03:12;;;;;;;37.10;13.27;;;;;;;0.28;77.48;102749.56;7390570;19;20098;-64
2023/03/02 09:05:37;;;;;;;31.65;13.18;;;;;;;0.21;77.74;102745.25;7387901;19;20459;-63
2023/03/02 09:08:03;;;;;;;38.20;14.20;;;;;;;0.39;77.16;102745.13;7388877;19;20003;-64
2023/03/02 09:10:28;;;;;;;23.88;12.73;;;;;;;0.39;77.38;102754.72;7387465;19;20348;-64
2023/03/02 09:12:54;;;;;;;29.90;12.98;;;;;;;0.45;77.15;102749.44;7390322;19;20014;-65
2023/03/02 09:16:39;;;;;;;37.05;12.90;;;;;;;0.45;77.57;102754.69;6860349;19;9931584;-64
2023/03/02 09:19:04;;;;;;;31.20;13.13;;;;;;;0.39;77.86;102744.25;7426599;19;20029;-65
2023/03/02 09:21:30;;;;;;;28.40;14.10;;;;;;;0.52;77.21;102750.25;7427018;19;19998;-64
2023/03/02 09:23:57;;;;;;;25.95;12.15;;;;;;;0.64;76.57;102744.94;7425728;19;20054;-64
2023/03/02 09:26:24;;;;;;;25.08;12.88;;;;;;;0.71;76.34;102743.13;7423378;19;19998;-64
2023/03/02 09:28:50;;;;;;;34.17;14.25;;;;;;;0.50;77.43;102747.66;7426747;19;19994;-64
2023/03/02 09:31:15;;;;;;;24.60;12.25;;;;;;;0.58;77.33;102747.59;7426401;19;20074;-65
2023/03/02 09:33:41;;;;;;;23.50;13.07;;;;;;;0.75;76.66;102739.59;7404600;19;20023;-64
2023/03/02 09:36:10;;;;;;;23.52;12.18;;;;;;;0.75;76.64;102743.09;7422688;19;20001;-64
2023/03/02 09:38:36;;;;;;;34.42;12.98;;;;;;;0.78;76.21;102747.41;7424961;19;20002;-63
2023/03/02 09:41:17;;;;;;;28.48;12.43;;;;;;;0.67;76.56;102744.91;7424818;19;20007;-66
2023/03/02 09:44:08;;;;;;;27.02;12.65;;;;;;;0.90;76.30;102749.91;7425379;19;20025;-64
2023/03/02 09:46:38;;;;;;;26.92;12.02;;;;;;;0.92;75.97;102742.94;7422887;19;20009;-64
2023/03/02 09:49:25;;;;;;;30.25;14.43;;;;;;;0.87;76.72;102744.72;7426092;19;20018;-64
2023/03/02 09:52:19;;;;;;;24.05;13.35;;;;;;;0.99;76.34;102744.59;7424138;19;20004;-64
2023/03/02 09:54:45;;;;;;;28.10;13.50;;;;;;;0.95;76.16;102748.13;7421434;19;19994;-64
2023/03/02 09:57:21;;;;;;;24.45;12.77;;;;;;;0.86;76.81;102753.44;7425608;19;20067;-64
2023/03/02 09:59:58;;;;;;;30.80;12.25;;;;;;;0.95;76.74;102748.13;7425895;19;20032;-65
2023/03/02 10:02:48;;;;;;;29.95;11.85;;;;;;;0.79;77.01;102751.78;7423889;19;20018;-65
2023/03/02 10:05:21;;;;;;;26.13;12.13;;;;;;;0.78;77.25;102761.38;7421307;19;20385;-65
2023/03/02 10:07:47;;;;;;;25.38;12.30;;;;;;;1.08;76.06;102762.81;7425377;19;20002;-65
2023/03/02 10:10:31;;;;;;;23.13;11.10;;;;;;;1.08;76.20;102770.69;7425343;19;20006;-63
2023/03/02 10:13:17;;;;;;;25.60;12.15;;;;;;;0.97;76.49;102764.69;7425482;19;20002;-64
2023/03/02 10:16:02;;;;;;;32.20;12.30;;;;;;;1.05;76.40;102752.41;7422024;19;20330;-63
2023/03/02 10:18:39;;;;;;;29.67;12.57;;;;;;;1.03;76.40;102759.41;7425308;19;20022;-63
2023/03/02 10:21:24;;;;;;;41.63;13.48;;;;;;;1.17;76.17;102765.38;7425503;19;20015;-64
2023/03/02 10:24:01;;;;;;;21.05;11.38;;;;;;;1.24;76.22;102767.91;7423789;19;20009;-63
2023/03/02 10:26:40;;;;;;;32.13;13.70;;;;;;;1.22;76.44;102767.06;7410512;19;19999;-63
2023/03/02 10:29:09;;;;;;;22.50;11.30;;;;;;;1.41;75.75;102766.84;7395862;19;20025;-62
2023/03/02 10:31:39;;;;;;;25.50;11.93;;;;;;;1.43;75.58;102758.94;7395303;19;20003;-63
2023/03/02 10:34:07;;;;;;;23.02;12.23;;;;;;;1.50;75.34;102762.38;7395882;19;20003;-63
2023/03/02 10:36:42;;;;;;;21.38;11.15;;;;;;;1.45;75.71;102748.47;7392896;19;20016;-62
2023/03/02 10:39:15;;;;;;;24.15;12.55;;;;;;;1.59;75.21;102747.44;7395860;19;20044;-64
2023/03/02 10:41:53;;;;;;;23.13;12.07;;;;;;;1.55;75.54;102750.09;7395864;19;20006;-64
2023/03/02 10:44:19;;;;;;;35.53;13.70;;;;;;;1.45;75.53;102744.09;7394934;19;20077;-63
2023/03/02 10:46:45;;;;;;;27.50;12.77;;;;;;;1.30;75.95;102760.84;7394168;19;20015;-63
2023/03/02 10:49:33;;;;;;;24.42;12.70;;;;;;;1.26;76.06;102753.06;7395834;19;20103;-63
2023/03/02 10:52:03;;;;;;;28.73;12.68;;;;;;;1.34;76.05;102746.84;7395677;19;20023;-63
2023/03/02 10:54:31;;;;;;;26.52;12.45;;;;;;;1.50;75.90;102736.19;7394552;19;20030;-63
2023/03/02 10:56:59;;;;;;;24.80;13.80;;;;;;;1.63;75.36;102736.03;7396046;19;20502;-63
2023/03/02 10:59:25;;;;;;;27.70;13.43;;;;;;;1.48;76.05;102733.59;7392943;19;20009;-62
2023/03/02 11:02:22;;;;;;;24.92;12.82;;;;;;;1.52;75.71;102742.28;7394722;19;20066;-64
2023/03/02 11:04:53;;;;;;;24.38;12.20;;;;;;;1.55;75.90;102734.38;7393708;19;20466;-63
2023/03/02 11:07:21;;;;;;;23.60;11.77;;;;;;;1.47;76.37;102730.97;7395187;19;20002;-62
2023/03/02 11:10:17;;;;;;;24.42;12.43;;;;;;;1.56;75.74;102723.91;7394935;19;20022;-63
2023/03/02 11:12:46;;;;;;;23.00;12.10;;;;;;;1.65;75.45;102725.53;7395603;19;20006;-62
2023/03/02 11:15:23;;;;;;;23.70;13.15;;;;;;;1.78;75.29;102724.47;7392514;19;20022;-63
2023/03/02 11:18:17;;;;;;;23.77;12.32;;;;;;;1.62;76.04;102728.16;7394956;19;20017;-64
2023/03/02 11:20:46;;;;;;;23.15;11.80;;;;;;;1.82;75.38;102723.56;7394288;19;19995;-64
2023/03/02 11:23:22;;;;;;;24.83;12.43;;;;;;;1.77;75.17;102719.25;7394858;19;19999;-64